createdAt,value
2019-05-02T00:03:04.523Z,58.10
2019-05-02T00:08:10.709Z,58.20
2019-05-02T00:13:16.487Z,57.60
2019-05-02T00:18:21.721Z,56.30
2019-05-02T00:23:27.908Z,57.20
2019-05-02T00:28:33.327Z,57.00
2019-05-02T00:33:38.351Z,57.10
2019-05-02T00:38:43.792Z,58.50
2019-05-02T00:43:48.867Z,59.60
2019-05-02T00:48:59.780Z,59.50
2019-05-02T00:54:05.747Z,60.00
2019-05-02T00:59:10.847Z,60.10
2019-05-02T01:04:30.723Z,59.40
2019-05-02T01:09:36.681Z,60.10
2019-05-02T01:14:41.789Z,60.40
2019-05-02T01:19:47.281Z,60.20
2019-05-02T01:24:53.611Z,61.00
2019-05-02T01:30:16.593Z,61.00
2019-05-02T01:35:42.452Z,61.40
2019-05-02T01:40:52.605Z,61.10
2019-05-02T01:45:53.454Z,62.20
2019-05-02T01:50:58.358Z,61.80
2019-05-02T01:56:03.471Z,61.50
2019-05-02T02:01:08.581Z,61.50
2019-05-02T02:06:13.135Z,61.90
2019-05-02T02:11:17.486Z,61.70
2019-05-02T02:16:21.999Z,62.40
2019-05-02T02:21:38.243Z,62.70
2019-05-02T02:26:43.542Z,62.60
2019-05-02T02:31:49.258Z,63.50
2019-05-02T02:36:53.850Z,63.30
2019-05-02T02:41:57.884Z,63.20
2019-05-02T02:47:02.078Z,64.30
2019-05-02T02:52:06.895Z,64.00
2019-05-02T02:57:20.090Z,64.30
2019-05-02T03:02:18.907Z,64.90
2019-05-02T03:07:25.998Z,65.60
2019-05-02T03:12:51.883Z,65.00
2019-05-02T03:17:59.919Z,66.40
2019-05-02T03:23:04.059Z,66.60
2019-05-02T03:28:17.451Z,66.80
2019-05-02T03:33:15.923Z,66.00
2019-05-02T03:38:31.690Z,67.00
2019-05-02T03:43:28.540Z,68.60
2019-05-02T03:48:33.550Z,68.70
2019-05-02T03:53:38.557Z,69.40
2019-05-02T03:58:48.692Z,69.80
2019-05-02T04:03:51.435Z,68.80
2019-05-02T04:09:00.007Z,69.30
2019-05-02T04:14:14.914Z,69.30
2019-05-02T04:19:13.098Z,67.50
2019-05-02T04:24:18.653Z,69.00
2019-05-02T04:29:24.566Z,69.60
2019-05-02T04:34:31.214Z,70.60
2019-05-02T04:39:39.085Z,71.20
2019-05-02T04:45:07.528Z,70.30
2019-05-02T04:49:52.178Z,70.20
2019-05-02T04:55:08.777Z,70.80
2019-05-02T05:00:10.625Z,71.20
2019-05-02T05:05:17.191Z,72.50
2019-05-02T05:10:19.334Z,72.50
2019-05-02T05:15:37.223Z,72.50
2019-05-02T05:20:31.713Z,72.90
2019-05-02T05:25:47.890Z,74.80
2019-05-02T05:30:53.366Z,74.40
2019-05-02T05:35:57.975Z,75.00
2019-05-02T05:41:03.081Z,72.60
2019-05-02T05:46:10.609Z,73.10
2019-05-02T05:51:19.007Z,74.20
2019-05-02T05:56:21.484Z,73.00
2019-05-02T06:01:33.693Z,73.40
2019-05-02T06:06:34.447Z,72.50
2019-05-02T06:11:38.706Z,72.60
2019-05-02T06:16:46.679Z,72.90
2019-05-02T06:21:50.143Z,73.30
2019-05-02T06:26:55.403Z,72.60
2019-05-02T06:32:02.884Z,72.10
2019-05-02T06:37:08.128Z,71.80
2019-05-02T06:42:13.807Z,72.60
2019-05-02T06:47:18.718Z,69.90
2019-05-02T06:52:27.157Z,68.70
2019-05-02T06:57:31.473Z,69.30
2019-05-02T07:03:05.048Z,70.30
2019-05-02T07:08:11.850Z,67.50
2019-05-02T07:13:15.422Z,65.10
2019-05-02T07:18:21.837Z,63.20
2019-05-02T07:23:27.332Z,63.30
2019-05-02T07:28:32.899Z,61.10
2019-05-02T07:33:42.226Z,62.20
2019-05-02T07:38:47.744Z,64.00
2019-05-02T07:43:56.243Z,61.10
2019-05-02T07:49:01.931Z,62.20
2019-05-02T07:54:07.634Z,60.80
2019-05-02T07:59:12.449Z,60.80
2019-05-02T08:04:27.555Z,60.70
2019-05-02T08:09:32.448Z,59.10
2019-05-02T08:14:37.597Z,58.40
2019-05-02T08:19:43.300Z,56.60
2019-05-02T08:24:48.995Z,55.40
2019-05-02T08:29:53.833Z,56.80
2019-05-02T08:34:58.934Z,54.40
2019-05-02T08:40:05.307Z,55.00
2019-05-02T08:45:12.359Z,52.80
2019-05-02T08:50:18.699Z,53.40
2019-05-02T08:55:23.952Z,52.10
2019-05-02T09:00:32.226Z,51.00
2019-05-02T09:05:36.948Z,51.90
2019-05-02T09:10:43.471Z,51.20
2019-05-02T09:15:51.267Z,49.90
2019-05-02T09:20:56.673Z,51.60
2019-05-02T09:26:02.439Z,50.60
2019-05-02T09:31:07.137Z,50.40
2019-05-02T09:36:12.827Z,48.10
2019-05-02T09:41:19.367Z,49.40
2019-05-02T09:46:24.056Z,45.90
2019-05-02T09:51:28.628Z,43.60
2019-05-02T09:56:32.910Z,43.20
2019-05-02T10:01:39.201Z,43.70
2019-05-02T10:06:43.438Z,43.50
2019-05-02T10:11:48.841Z,43.40
2019-05-02T10:16:57.641Z,43.10
2019-05-02T10:22:01.538Z,41.30
2019-05-02T10:27:08.551Z,41.00
2019-05-02T10:32:15.110Z,41.20
2019-05-02T10:37:18.984Z,40.10
2019-05-02T10:42:25.049Z,39.70
2019-05-02T10:47:32.298Z,38.60
2019-05-02T10:52:37.781Z,40.10
2019-05-02T10:57:43.114Z,38.90
2019-05-02T11:03:17.350Z,37.90
2019-05-02T11:08:22.606Z,36.50
2019-05-02T11:14:00.786Z,36.10
2019-05-02T11:19:12.862Z,35.90
2019-05-02T11:24:17.980Z,35.30
2019-05-02T11:29:23.382Z,35.70
2019-05-02T11:34:28.574Z,35.80
2019-05-02T11:39:44.303Z,34.20
2019-05-02T11:44:41.847Z,34.10
2019-05-02T11:49:52.061Z,33.80
2019-05-02T11:54:54.274Z,33.90
2019-05-02T12:00:04.132Z,33.80
2019-05-02T12:05:08.306Z,33.30
2019-05-02T12:10:13.692Z,33.30
2019-05-02T12:15:19.056Z,33.40
2019-05-02T12:20:28.626Z,33.30
2019-05-02T12:25:32.853Z,31.50
2019-05-02T12:30:37.864Z,33.10
2019-05-02T12:35:43.354Z,31.80
2019-05-02T12:40:48.840Z,32.20
2019-05-02T12:45:53.918Z,32.30
2019-05-02T12:50:59.231Z,33.70
2019-05-02T12:56:03.704Z,33.40
2019-05-02T13:01:07.499Z,30.80
2019-05-02T13:06:12.317Z,31.30
2019-05-02T13:11:43.874Z,31.90
2019-05-02T13:16:45.170Z,32.80
2019-05-02T13:21:59.712Z,31.50
2019-05-02T13:27:06.718Z,31.60
2019-05-02T13:32:22.144Z,28.90
2019-05-02T13:37:26.930Z,28.60
2019-05-02T13:42:33.578Z,28.10
2019-05-02T13:47:39.877Z,29.70
2019-05-02T13:52:53.156Z,29.60
2019-05-02T13:57:52.982Z,29.80
2019-05-02T14:02:58.852Z,30.00
2019-05-02T14:08:22.529Z,29.70
2019-05-02T14:13:28.293Z,30.20
2019-05-02T14:18:34.678Z,29.00
2019-05-02T14:23:42.013Z,29.20
2019-05-02T14:28:47.030Z,30.60
2019-05-02T14:34:12.131Z,30.70
2019-05-02T14:39:17.925Z,31.20
2019-05-02T14:44:26.967Z,32.60
2019-05-02T14:49:32.057Z,32.80
2019-05-02T14:54:38.117Z,31.80
2019-05-02T14:59:44.311Z,30.50
2019-05-02T15:04:49.441Z,30.70
2019-05-02T15:09:57.179Z,30.90
2019-05-02T15:15:02.489Z,31.50
2019-05-02T15:20:09.543Z,31.90
2019-05-02T15:25:17.861Z,30.40
2019-05-02T15:30:24.077Z,31.10
2019-05-02T15:36:07.533Z,29.80
2019-05-02T15:41:12.734Z,30.00
2019-05-02T15:46:22.583Z,31.00
2019-05-02T15:51:23.105Z,32.00
2019-05-02T15:56:27.733Z,32.70
2019-05-02T16:01:52.499Z,31.40
2019-05-02T16:07:00.444Z,31.20
2019-05-02T16:12:04.890Z,31.30
2019-05-02T16:17:09.423Z,31.30
2019-05-02T16:22:22.572Z,33.70
2019-05-02T16:27:46.682Z,32.90
2019-05-02T16:33:02.702Z,31.30
2019-05-02T16:38:08.445Z,31.80
2019-05-02T16:43:13.730Z,31.20
2019-05-02T16:48:19.448Z,31.60
2019-05-02T16:53:26.129Z,31.40
2019-05-02T16:58:31.945Z,32.60
2019-05-02T17:03:38.304Z,31.90
2019-05-02T17:09:02.358Z,32.70
2019-05-02T17:14:12.027Z,34.10
2019-05-02T17:19:17.218Z,33.70
2019-05-02T17:24:26.066Z,33.20
2019-05-02T17:29:31.852Z,33.60
2019-05-02T17:34:37.118Z,34.60
2019-05-02T17:39:45.954Z,35.50
2019-05-02T17:44:51.926Z,34.30
2019-05-02T17:49:58.764Z,35.40
2019-05-02T17:55:04.887Z,34.70
2019-05-02T18:00:17.046Z,34.60
2019-05-02T18:05:26.490Z,35.00
2019-05-02T18:10:29.644Z,35.20
2019-05-02T18:15:36.304Z,34.50
2019-05-02T18:20:44.594Z,35.40
2019-05-02T18:25:46.882Z,43.10
2019-05-02T18:30:52.500Z,47.70
2019-05-02T18:35:56.805Z,49.50
2019-05-02T18:41:05.843Z,51.10
2019-05-02T18:46:07.748Z,52.90
2019-05-02T18:51:19.377Z,53.90
2019-05-02T18:56:23.532Z,57.00
2019-05-02T19:01:27.902Z,63.30
2019-05-02T19:06:33.297Z,67.60
2019-05-02T19:11:38.114Z,60.80
2019-05-02T19:16:42.650Z,62.20
2019-05-02T19:21:47.370Z,67.10
2019-05-02T19:26:53.328Z,69.60
2019-05-02T19:31:58.661Z,70.90
2019-05-02T19:37:04.493Z,69.10
2019-05-02T19:42:12.321Z,69.60
2019-05-02T19:47:17.698Z,70.30
2019-05-02T19:52:22.255Z,69.90
2019-05-02T19:57:28.247Z,72.40
2019-05-02T20:02:37.493Z,69.90
2019-05-02T20:07:42.660Z,73.60
2019-05-02T20:12:50.321Z,75.30
2019-05-02T20:18:00.421Z,73.70
2019-05-02T20:23:14.988Z,75.00
2019-05-02T20:28:09.457Z,74.90
2019-05-02T20:33:15.105Z,75.50
2019-05-02T20:38:21.953Z,73.90
2019-05-02T20:43:27.075Z,76.50
2019-05-02T20:48:32.379Z,78.30
2019-05-02T20:53:37.830Z,77.20
2019-05-02T20:58:43.372Z,79.30
2019-05-02T21:03:48.452Z,77.40
2019-05-02T21:09:14.189Z,77.90
2019-05-02T21:14:21.600Z,81.10
2019-05-02T21:19:26.676Z,81.10
2019-05-02T21:24:32.743Z,80.50
2019-05-02T21:29:38.082Z,80.60
2019-05-02T21:34:44.371Z,83.00
2019-05-02T21:39:49.550Z,84.10
2019-05-02T21:44:54.909Z,84.70
2019-05-02T21:50:25.523Z,82.70
2019-05-02T21:55:48.646Z,80.50
2019-05-02T22:01:13.030Z,82.20
2019-05-02T22:06:17.113Z,82.90
2019-05-02T22:11:22.545Z,83.90
2019-05-02T22:16:26.008Z,83.00
2019-05-02T22:21:34.683Z,77.90
2019-05-02T22:26:36.363Z,79.80
2019-05-02T22:31:42.860Z,82.40
2019-05-02T22:36:46.805Z,82.60
2019-05-02T22:41:52.626Z,82.40
2019-05-02T22:46:56.919Z,84.20
2019-05-02T22:52:01.412Z,79.20
2019-05-02T22:57:06.360Z,75.00
2019-05-02T23:02:12.600Z,81.10
2019-05-02T23:07:17.345Z,80.40
2019-05-02T23:12:25.006Z,81.80
2019-05-02T23:17:32.148Z,84.20
2019-05-02T23:22:37.189Z,82.60
2019-05-02T23:27:47.494Z,83.20
2019-05-02T23:32:52.953Z,82.50
2019-05-02T23:37:58.683Z,83.10
2019-05-02T23:43:04.790Z,82.60
2019-05-02T23:48:09.722Z,83.70
2019-05-02T23:53:14.680Z,81.60
2019-05-02T23:58:19.373Z,83.70
